createdAt,value
2019-03-28T00:01:50.953Z,5.19
2019-03-28T00:04:20.293Z,5.26
2019-03-28T00:06:49.626Z,5.35
2019-03-28T00:09:19.514Z,5.36
2019-03-28T00:12:09.440Z,5.13
2019-03-28T00:14:38.785Z,4.85
2019-03-28T00:17:08.118Z,4.75
2019-03-28T00:19:37.454Z,4.61
2019-03-28T00:22:06.803Z,4.46
2019-03-28T00:27:31.599Z,4.38
2019-03-28T00:30:00.934Z,4.41
2019-03-28T00:32:30.285Z,4.41
2019-03-28T00:35:00.229Z,4.43
2019-03-28T00:37:50.262Z,4.39
2019-03-28T00:40:19.607Z,4.36
2019-03-28T00:42:48.924Z,4.30
2019-03-28T00:45:24.191Z,4.27
2019-03-28T00:47:53.532Z,4.25
2019-03-28T00:50:41.982Z,4.21
2019-03-28T00:53:12.948Z,4.18
2019-03-28T00:55:42.297Z,4.18
2019-03-28T00:58:11.635Z,4.13
2019-03-28T01:00:40.976Z,4.09
2019-03-28T01:03:11.173Z,4.17
2019-03-28T01:06:00.512Z,4.20
2019-03-28T01:08:29.855Z,4.23
2019-03-28T01:10:59.193Z,4.23
2019-03-28T01:13:28.543Z,4.25
2019-03-28T01:15:57.882Z,4.18
2019-03-28T01:18:27.222Z,4.18
2019-03-28T01:20:56.567Z,4.19
2019-03-28T01:23:25.908Z,4.20
2019-03-28T01:26:07.953Z,4.17
2019-03-28T01:28:37.284Z,4.16
2019-03-28T01:31:06.620Z,4.16
2019-03-28T01:33:35.964Z,4.08
2019-03-28T01:36:05.299Z,3.99
2019-03-28T01:38:46.479Z,3.95
2019-03-28T01:41:16.248Z,3.95
2019-03-28T01:43:56.342Z,3.95
2019-03-28T01:46:31.395Z,3.93
2019-03-28T01:49:03.593Z,3.87
2019-03-28T01:51:50.877Z,3.79
2019-03-28T01:54:20.225Z,3.85
2019-03-28T01:56:49.563Z,3.81
2019-03-28T01:59:18.903Z,3.79
2019-03-28T02:01:48.247Z,3.71
2019-03-28T02:04:17.581Z,3.72
2019-03-28T02:07:06.018Z,3.68
2019-03-28T02:09:35.353Z,3.54
2019-03-28T02:12:05.289Z,3.52
2019-03-28T02:14:40.855Z,3.53
2019-03-28T02:17:10.190Z,3.50
2019-03-28T02:19:39.546Z,3.63
2019-03-28T02:22:08.878Z,3.67
2019-03-28T02:24:38.214Z,3.54
2019-03-28T02:27:07.558Z,3.45
2019-03-28T02:29:36.886Z,3.47
2019-03-28T02:32:06.238Z,3.43
2019-03-28T02:34:35.572Z,3.17
2019-03-28T02:37:05.192Z,3.24
2019-03-28T02:39:34.515Z,3.25
2019-03-28T02:42:03.843Z,3.09
2019-03-28T02:44:33.194Z,3.04
2019-03-28T02:47:02.539Z,3.08
2019-03-28T02:49:31.875Z,2.97
2019-03-28T02:52:01.488Z,2.88
2019-03-28T02:54:32.459Z,3.00
2019-03-28T02:57:01.807Z,3.07
2019-03-28T02:59:31.142Z,3.04
2019-03-28T03:02:00.602Z,3.20
2019-03-28T03:04:29.946Z,3.14
2019-03-28T03:06:59.367Z,3.09
2019-03-28T03:09:40.972Z,3.18
2019-03-28T03:12:10.303Z,3.28
2019-03-28T03:14:39.642Z,3.13
2019-03-28T03:17:08.996Z,2.99
2019-03-28T03:19:38.335Z,3.12
2019-03-28T03:22:07.694Z,3.03
2019-03-28T03:24:37.040Z,3.05
2019-03-28T03:27:06.347Z,3.09
2019-03-28T03:29:35.768Z,3.10
2019-03-28T03:32:05.106Z,3.06
2019-03-28T03:34:34.455Z,2.98
2019-03-28T03:37:04.195Z,2.92
2019-03-28T03:39:40.409Z,3.08
2019-03-28T03:42:09.884Z,2.90
2019-03-28T03:44:58.317Z,2.94
2019-03-28T03:47:32.878Z,2.88
2019-03-28T03:50:02.229Z,2.86
2019-03-28T03:52:31.559Z,2.87
2019-03-28T03:55:00.897Z,2.76
2019-03-28T03:57:30.244Z,2.80
2019-03-28T03:59:59.582Z,2.71
2019-03-28T04:02:28.907Z,2.78
2019-03-28T04:04:58.242Z,2.85
2019-03-28T04:07:27.594Z,2.80
2019-03-28T04:09:56.932Z,2.69
2019-03-28T04:12:26.288Z,2.66
2019-03-28T04:14:55.608Z,2.70
2019-03-28T04:17:25.205Z,2.73
2019-03-28T04:19:54.573Z,2.69
2019-03-28T04:22:24.217Z,2.56
2019-03-28T04:24:53.561Z,2.62
2019-03-28T04:27:22.892Z,2.68
2019-03-28T04:29:52.230Z,2.67
2019-03-28T04:32:21.574Z,2.64
2019-03-28T04:34:50.904Z,2.42
2019-03-28T04:37:20.247Z,2.61
2019-03-28T04:39:49.595Z,2.65
2019-03-28T04:42:18.934Z,2.69
2019-03-28T04:44:48.268Z,2.58
2019-03-28T04:47:17.598Z,2.58
2019-03-28T04:49:52.479Z,2.63
2019-03-28T04:52:21.812Z,2.61
2019-03-28T04:54:51.146Z,2.63
2019-03-28T04:57:20.492Z,2.61
2019-03-28T04:59:49.829Z,2.60
2019-03-28T05:02:19.184Z,2.56
2019-03-28T05:04:48.509Z,2.49
2019-03-28T05:07:17.839Z,2.55
2019-03-28T05:09:47.178Z,2.52
2019-03-28T05:12:16.511Z,2.51
2019-03-28T05:14:45.858Z,2.48
2019-03-28T05:17:15.192Z,2.52
2019-03-28T05:19:44.534Z,2.55
2019-03-28T05:22:13.869Z,2.58
2019-03-28T05:24:43.227Z,2.63
2019-03-28T05:27:18.188Z,2.53
2019-03-28T05:29:47.531Z,2.49
2019-03-28T05:32:16.863Z,2.47
2019-03-28T05:34:46.203Z,2.75
2019-03-28T05:37:15.547Z,2.85
2019-03-28T05:39:45.336Z,2.86
2019-03-28T05:42:21.395Z,2.91
2019-03-28T05:44:50.729Z,2.88
2019-03-28T05:47:22.102Z,2.85
2019-03-28T05:49:56.514Z,2.94
2019-03-28T05:52:31.623Z,3.08
2019-03-28T05:55:01.037Z,3.20
2019-03-28T05:57:30.707Z,3.18
2019-03-28T06:00:00.434Z,3.35
2019-03-28T06:02:30.023Z,3.39
2019-03-28T06:04:59.371Z,3.60
2019-03-28T06:07:28.715Z,3.69
2019-03-28T06:09:58.058Z,3.81
2019-03-28T06:12:27.401Z,3.93
2019-03-28T06:14:56.735Z,3.87
2019-03-28T06:17:26.080Z,3.87
2019-03-28T06:19:55.416Z,3.79
2019-03-28T06:22:30.657Z,3.94
2019-03-28T06:24:59.989Z,4.18
2019-03-28T06:27:29.319Z,4.30
2019-03-28T06:30:01.804Z,4.34
2019-03-28T06:32:48.781Z,4.42
2019-03-28T06:35:18.403Z,4.38
2019-03-28T06:38:08.242Z,4.49
2019-03-28T06:40:37.602Z,4.59
2019-03-28T06:43:06.930Z,4.55
2019-03-28T06:45:36.262Z,4.62
2019-03-28T06:48:05.603Z,4.69
2019-03-28T06:50:34.936Z,4.69
2019-03-28T06:53:04.344Z,4.71
2019-03-28T06:55:36.767Z,4.77
2019-03-28T06:58:14.423Z,4.78
2019-03-28T07:00:43.760Z,4.84
2019-03-28T07:03:13.452Z,4.98
2019-03-28T07:05:42.790Z,5.04
2019-03-28T07:08:12.123Z,5.14
2019-03-28T07:10:41.753Z,5.24
2019-03-28T07:13:11.087Z,5.42
2019-03-28T07:15:40.430Z,5.53
2019-03-28T07:18:09.764Z,5.63
2019-03-28T07:20:39.094Z,5.72
2019-03-28T07:23:08.439Z,5.71
2019-03-28T07:25:37.773Z,5.69
2019-03-28T07:28:07.107Z,5.94
2019-03-28T07:30:38.107Z,6.09
2019-03-28T07:33:07.443Z,6.30
2019-03-28T07:35:36.802Z,6.40
2019-03-28T07:38:06.110Z,6.34
2019-03-28T07:40:35.670Z,6.51
2019-03-28T07:43:06.720Z,6.59
2019-03-28T07:45:37.682Z,6.67
2019-03-28T07:48:08.658Z,6.77
2019-03-28T07:50:42.416Z,6.83
2019-03-28T07:53:19.567Z,6.93
2019-03-28T07:56:15.908Z,6.99
2019-03-28T07:58:46.903Z,7.21
2019-03-28T08:01:18.308Z,7.22
2019-03-28T08:04:12.298Z,7.18
2019-03-28T08:06:49.671Z,7.43
2019-03-28T08:09:19.956Z,7.23
2019-03-28T08:11:50.915Z,7.54
2019-03-28T08:14:21.891Z,7.60
2019-03-28T08:16:52.851Z,7.95
2019-03-28T08:19:23.830Z,8.01
2019-03-28T08:21:53.157Z,8.01
2019-03-28T08:24:22.488Z,8.22
2019-03-28T08:26:51.820Z,8.28
2019-03-28T08:29:21.143Z,8.47
2019-03-28T08:35:45.359Z,8.49
2019-03-28T08:38:26.035Z,8.51
2019-03-28T08:40:55.683Z,8.56
2019-03-28T08:43:25.009Z,8.59
2019-03-28T08:46:00.530Z,8.84
2019-03-28T08:48:29.860Z,9.08
2019-03-28T08:50:59.223Z,9.21
2019-03-28T08:53:28.547Z,9.32
2019-03-28T08:55:57.875Z,9.40
2019-03-28T08:58:48.185Z,9.28
2019-03-28T09:01:30.640Z,9.33
2019-03-28T09:04:21.006Z,9.38
2019-03-28T09:06:50.291Z,9.69
2019-03-28T09:09:32.974Z,9.87
2019-03-28T09:12:04.294Z,9.73
2019-03-28T09:14:35.270Z,9.96
2019-03-28T09:17:06.237Z,10.01
2019-03-28T09:19:38.933Z,10.15
2019-03-28T09:22:27.362Z,10.16
2019-03-28T09:24:58.339Z,10.28
2019-03-28T09:27:29.303Z,10.28
2019-03-28T09:30:48.844Z,10.47
2019-03-28T09:33:20.612Z,10.48
2019-03-28T09:35:51.780Z,10.80
2019-03-28T09:38:41.786Z,10.98
2019-03-28T09:41:12.907Z,11.01
2019-03-28T09:43:54.670Z,11.16
2019-03-28T09:46:20.043Z,11.20
2019-03-28T09:48:51.012Z,11.16
2019-03-28T09:51:22.170Z,11.63
2019-03-28T09:53:53.132Z,11.46
2019-03-28T09:56:24.119Z,11.32
2019-03-28T09:58:55.085Z,11.63
2019-03-28T10:01:26.187Z,11.46
2019-03-28T10:03:57.158Z,11.43
2019-03-28T10:06:28.418Z,11.46
2019-03-28T10:08:59.513Z,11.40
2019-03-28T10:11:30.503Z,11.54
2019-03-28T10:14:18.925Z,11.61
2019-03-28T10:16:49.899Z,11.88
2019-03-28T10:19:20.864Z,12.03
2019-03-28T10:21:51.846Z,12.23
2019-03-28T10:24:21.176Z,12.30
2019-03-28T10:26:50.565Z,11.81
2019-03-28T10:29:38.997Z,12.32
2019-03-28T10:32:08.327Z,12.43
2019-03-28T10:34:37.672Z,12.34
2019-03-28T10:37:07.002Z,12.24
2019-03-28T10:39:36.334Z,12.20
2019-03-28T10:42:05.753Z,12.50
2019-03-28T10:44:35.467Z,12.39
2019-03-28T10:49:45.692Z,12.42
2019-03-28T10:55:35.722Z,12.30
2019-03-28T10:58:17.598Z,12.62
2019-03-28T11:00:41.753Z,12.56
2019-03-28T11:03:11.097Z,12.59
2019-03-28T11:05:42.080Z,12.79
2019-03-28T11:08:13.062Z,12.48
2019-03-28T11:10:42.410Z,12.94
2019-03-28T11:13:11.746Z,12.73
2019-03-28T11:15:42.719Z,12.67
2019-03-28T11:18:13.802Z,12.90
2019-03-28T11:20:44.840Z,12.96
2019-03-28T11:23:33.516Z,13.07
2019-03-28T11:26:02.853Z,13.07
2019-03-28T11:28:32.214Z,12.97
2019-03-28T11:31:01.529Z,13.08
2019-03-28T11:33:30.867Z,13.33
2019-03-28T11:36:00.209Z,13.27
2019-03-28T11:38:29.544Z,12.96
2019-03-28T11:40:58.866Z,13.09
2019-03-28T11:43:28.263Z,13.37
2019-03-28T11:45:57.597Z,14.01
2019-03-28T11:48:28.581Z,14.00
2019-03-28T11:50:57.914Z,13.64
2019-03-28T11:53:28.879Z,13.74
2019-03-28T11:55:58.216Z,13.69
2019-03-28T11:58:27.543Z,13.58
2019-03-28T12:00:56.875Z,13.88
2019-03-28T12:03:26.223Z,13.53
2019-03-28T12:05:55.791Z,14.08
2019-03-28T12:08:25.141Z,13.76
2019-03-28T12:11:13.862Z,14.33
2019-03-28T12:13:55.012Z,14.37
2019-03-28T12:16:36.791Z,14.81
2019-03-28T12:19:06.130Z,14.81
2019-03-28T12:21:54.800Z,14.76
2019-03-28T12:24:36.780Z,14.74
2019-03-28T12:27:06.110Z,14.74
2019-03-28T12:29:36.023Z,14.73
2019-03-28T12:32:37.443Z,14.73
2019-03-28T12:38:27.245Z,14.62
2019-03-28T12:40:56.618Z,14.93
2019-03-28T12:43:25.956Z,14.80
2019-03-28T12:45:55.291Z,14.72
2019-03-28T12:48:24.621Z,14.97
2019-03-28T12:50:58.973Z,14.64
2019-03-28T12:53:30.812Z,14.90
2019-03-28T12:56:00.143Z,14.95
2019-03-28T12:58:29.479Z,14.95
2019-03-28T13:01:10.430Z,14.98
2019-03-28T13:03:45.784Z,14.98
2019-03-28T13:06:30.323Z,15.10
2019-03-28T13:08:59.651Z,15.13
2019-03-28T13:11:28.980Z,15.02
2019-03-28T13:13:58.311Z,15.16
2019-03-28T13:16:40.302Z,15.01
2019-03-28T13:19:09.881Z,15.09
2019-03-28T13:21:58.626Z,15.06
2019-03-28T13:24:28.140Z,14.90
2019-03-28T13:26:57.462Z,15.03
2019-03-28T13:29:26.790Z,15.13
2019-03-28T13:32:15.466Z,14.94
2019-03-28T13:34:45.110Z,14.87
2019-03-28T13:37:14.452Z,14.97
2019-03-28T13:39:43.773Z,15.06
2019-03-28T13:42:13.115Z,14.99
2019-03-28T13:44:42.443Z,15.09
2019-03-28T13:47:11.779Z,15.11
2019-03-28T13:49:41.119Z,15.46
2019-03-28T13:52:22.209Z,15.37
2019-03-28T13:54:53.037Z,15.37
2019-03-28T13:57:28.267Z,15.13
2019-03-28T13:59:57.607Z,15.24
2019-03-28T14:02:26.939Z,15.26
2019-03-28T14:04:56.281Z,15.13
2019-03-28T14:07:45.027Z,15.06
2019-03-28T14:10:25.595Z,15.25
2019-03-28T14:13:14.275Z,14.45
2019-03-28T14:15:43.622Z,14.45
2019-03-28T14:18:13.255Z,14.44
2019-03-28T14:20:42.587Z,14.45
2019-03-28T14:23:23.678Z,15.14
2019-03-28T14:25:54.030Z,15.14
2019-03-28T14:28:23.363Z,15.49
2019-03-28T14:30:52.708Z,15.80
2019-03-28T14:33:22.039Z,15.80
2019-03-28T14:35:51.372Z,15.99
2019-03-28T14:38:20.973Z,16.08
2019-03-28T14:40:50.308Z,15.73
2019-03-28T14:43:19.629Z,15.49
2019-03-28T14:46:01.437Z,15.26
2019-03-28T14:48:30.799Z,15.23
2019-03-28T14:51:00.119Z,15.20
2019-03-28T14:53:42.035Z,14.54
2019-03-28T15:02:07.830Z,14.57
2019-03-28T15:04:43.491Z,14.48
2019-03-28T15:10:39.395Z,14.41
2019-03-28T15:13:21.268Z,14.09
2019-03-28T15:15:51.023Z,14.09
2019-03-28T15:18:39.699Z,13.85
2019-03-28T15:21:09.051Z,13.85
2019-03-28T15:23:57.720Z,13.67
2019-03-28T15:26:39.621Z,13.93
2019-03-28T15:29:20.962Z,13.93
2019-03-28T15:31:50.306Z,13.70
2019-03-28T15:34:19.637Z,13.82
2019-03-28T15:36:50.615Z,13.82
2019-03-28T15:39:19.949Z,13.99
2019-03-28T15:41:49.279Z,13.81
2019-03-28T15:44:18.619Z,14.01
2019-03-28T15:46:47.953Z,14.01
2019-03-28T15:49:17.290Z,14.03
2019-03-28T15:52:05.954Z,14.17
2019-03-28T15:54:47.828Z,14.09
2019-03-28T15:57:28.896Z,13.89
2019-03-28T15:59:58.238Z,13.89
2019-03-28T16:02:27.568Z,14.17
2019-03-28T16:05:08.678Z,14.19
2019-03-28T16:07:38.271Z,14.19
2019-03-28T16:10:20.229Z,14.27
2019-03-28T16:12:49.550Z,14.27
2019-03-28T16:15:18.879Z,14.14
2019-03-28T16:17:59.950Z,14.07
2019-03-28T16:20:29.284Z,14.07
2019-03-28T16:22:58.623Z,13.95
2019-03-28T16:25:28.366Z,13.85
2019-03-28T16:27:57.695Z,13.77
2019-03-28T16:30:39.470Z,13.72
2019-03-28T16:33:20.602Z,13.68
2019-03-28T16:35:49.925Z,13.68
2019-03-28T16:38:19.649Z,13.49
2019-03-28T16:41:09.630Z,13.45
2019-03-28T16:43:38.965Z,13.56
2019-03-28T16:46:20.059Z,13.50
2019-03-28T16:49:01.214Z,13.42
2019-03-28T16:51:30.533Z,13.42
2019-03-28T16:53:59.852Z,13.35
2019-03-28T16:56:29.255Z,13.13
2019-03-28T16:58:58.590Z,13.20
2019-03-28T17:01:28.196Z,13.17
2019-03-28T17:03:57.514Z,13.07
2019-03-28T17:06:46.016Z,13.03
2019-03-28T17:12:53.149Z,12.93
2019-03-28T17:15:25.736Z,12.82
2019-03-28T17:18:12.984Z,12.70
2019-03-28T17:20:42.464Z,12.72
2019-03-28T17:23:11.858Z,12.56
2019-03-28T17:25:41.193Z,12.51
2019-03-28T17:28:10.524Z,12.46
2019-03-28T17:30:39.864Z,12.40
2019-03-28T17:33:09.193Z,12.34
2019-03-28T17:35:38.537Z,12.23
2019-03-28T17:38:07.867Z,12.12
2019-03-28T17:40:39.020Z,12.17
2019-03-28T17:43:08.420Z,12.08
2019-03-28T17:45:37.747Z,12.05
2019-03-28T17:48:08.723Z,11.99
2019-03-28T17:50:38.051Z,11.93
2019-03-28T17:56:09.534Z,11.76
2019-03-28T17:58:59.843Z,11.60
2019-03-28T18:01:29.215Z,11.57
2019-03-28T18:03:58.624Z,11.69
2019-03-28T18:06:27.958Z,11.60
2019-03-28T18:08:58.925Z,11.64
2019-03-28T18:11:33.889Z,11.51
2019-03-28T18:17:06.692Z,11.34
2019-03-28T18:19:36.026Z,11.35
2019-03-28T18:22:05.368Z,11.42
2019-03-28T18:24:34.815Z,11.43
2019-03-28T18:27:04.159Z,11.28
2019-03-28T18:29:35.957Z,11.39
2019-03-28T18:32:10.113Z,11.42
2019-03-28T18:34:39.487Z,11.50
2019-03-28T18:37:08.866Z,11.54
2019-03-28T18:39:38.286Z,11.54
2019-03-28T18:42:07.661Z,11.57
2019-03-28T18:44:37.046Z,11.51
2019-03-28T18:47:06.748Z,11.56
2019-03-28T18:49:36.149Z,11.46
2019-03-28T18:52:07.403Z,11.40
2019-03-28T18:54:42.013Z,11.41
2019-03-28T18:57:11.462Z,11.39
2019-03-28T18:59:41.159Z,11.29
2019-03-28T19:02:10.577Z,11.37
2019-03-28T19:04:40.019Z,11.26
2019-03-28T19:07:10.020Z,11.24
2019-03-28T19:09:46.236Z,11.17
2019-03-28T19:12:15.798Z,11.23
2019-03-28T19:18:27.446Z,11.26
2019-03-28T19:20:57.057Z,11.22
2019-03-28T19:23:27.056Z,11.19
2019-03-28T19:25:58.209Z,11.15
2019-03-28T19:28:29.480Z,11.17
2019-03-28T19:31:18.921Z,11.21
2019-03-28T19:33:48.818Z,11.25
2019-03-28T19:36:18.450Z,11.23
2019-03-28T19:39:27.910Z,11.29
2019-03-28T19:44:57.978Z,11.27
2019-03-28T19:47:28.690Z,11.31
2019-03-28T19:50:48.126Z,11.27
2019-03-28T19:53:17.947Z,11.23
2019-03-28T19:56:08.051Z,11.24
2019-03-28T19:58:37.603Z,11.28
2019-03-28T20:01:07.247Z,11.25
2019-03-28T20:03:36.821Z,11.25
2019-03-28T20:12:09.830Z,11.32
2019-03-28T20:14:39.417Z,11.18
2019-03-28T20:17:09.047Z,11.21
2019-03-28T20:19:38.625Z,11.18
2019-03-28T20:22:08.180Z,11.16
2019-03-28T20:24:43.563Z,11.18
2019-03-28T20:27:13.477Z,11.19
2019-03-28T20:29:55.387Z,11.16
2019-03-28T20:32:24.953Z,11.15
2019-03-28T20:34:54.556Z,11.03
2019-03-28T20:37:44.845Z,11.07
2019-03-28T20:43:16.632Z,11.23
2019-03-28T20:45:46.172Z,11.11
2019-03-28T20:48:16.943Z,11.13
2019-03-28T20:50:52.014Z,11.07
2019-03-28T20:53:21.515Z,11.09
2019-03-28T20:55:51.774Z,11.06
2019-03-28T20:58:28.727Z,11.18
2019-03-28T21:04:00.307Z,11.05
2019-03-28T21:06:49.395Z,11.12
2019-03-28T21:09:19.171Z,11.08
2019-03-28T21:11:49.092Z,11.06
2019-03-28T21:14:38.950Z,10.98
2019-03-28T21:17:13.775Z,10.96
2019-03-28T21:19:43.299Z,10.95
2019-03-28T21:22:12.774Z,10.98
2019-03-28T21:24:42.225Z,10.90
2019-03-28T21:27:11.959Z,10.83
2019-03-28T21:29:48.695Z,10.86
2019-03-28T21:32:18.885Z,10.88
2019-03-28T21:34:56.428Z,10.80
2019-03-28T21:37:31.005Z,10.88
2019-03-28T21:40:01.315Z,10.83
2019-03-28T21:42:50.467Z,10.86
2019-03-28T21:45:19.867Z,10.76
2019-03-28T21:47:49.201Z,10.73
2019-03-28T21:50:18.539Z,10.85
2019-03-28T21:52:47.867Z,10.72
2019-03-28T21:55:17.277Z,10.66
2019-03-28T21:58:05.708Z,10.60
2019-03-28T22:00:35.064Z,10.63
2019-03-28T22:03:04.401Z,10.73
2019-03-28T22:05:33.732Z,10.80
2019-03-28T22:08:03.070Z,10.74
2019-03-28T22:10:32.674Z,10.69
2019-03-28T22:13:02.013Z,10.81
2019-03-28T22:15:50.435Z,10.79
2019-03-28T22:18:19.782Z,10.90
2019-03-28T22:21:08.447Z,10.77
2019-03-28T22:23:37.784Z,10.81
2019-03-28T22:26:07.110Z,10.84
2019-03-28T22:28:38.111Z,10.78
2019-03-28T22:31:46.138Z,10.78
2019-03-28T22:34:15.856Z,10.78
2019-03-28T22:36:56.444Z,10.88
2019-03-28T22:39:21.355Z,10.80
2019-03-28T22:41:50.682Z,10.76
2019-03-28T22:44:20.018Z,10.83
2019-03-28T22:46:49.350Z,10.78
2019-03-28T22:49:19.015Z,10.83
2019-03-28T22:51:48.351Z,10.76
2019-03-28T22:54:17.680Z,10.74
2019-03-28T22:56:53.287Z,10.81
2019-03-28T22:59:22.620Z,10.84
2019-03-28T23:01:51.955Z,10.77
2019-03-28T23:04:21.298Z,10.74
2019-03-28T23:06:50.623Z,10.78
2019-03-28T23:09:19.965Z,10.80
2019-03-28T23:11:49.291Z,10.69
2019-03-28T23:14:18.943Z,10.65
2019-03-28T23:17:08.746Z,10.57
2019-03-28T23:19:38.088Z,10.65
2019-03-28T23:22:27.027Z,10.52
2019-03-28T23:24:56.632Z,10.45
2019-03-28T23:27:26.878Z,10.44
2019-03-28T23:30:02.843Z,10.40
2019-03-28T23:32:38.919Z,10.46
2019-03-28T23:35:14.813Z,10.28
2019-03-28T23:37:51.295Z,10.20
2019-03-28T23:40:20.904Z,10.07
2019-03-28T23:42:50.235Z,9.93
2019-03-28T23:45:27.233Z,9.93
2019-03-28T23:47:56.563Z,9.81
2019-03-28T23:50:25.901Z,9.73
2019-03-28T23:52:55.240Z,9.57
2019-03-28T23:55:36.955Z,9.48
2019-03-28T23:58:06.317Z,9.47
